createdAt,value
2019-03-01T00:45:53.164Z,6.13
2019-03-01T01:00:51.096Z,6.10
2019-03-01T01:15:51.962Z,6.10
2019-03-01T01:30:53.334Z,6.10
2019-03-01T01:45:53.314Z,6.15
2019-03-01T02:00:53.784Z,6.33
2019-03-01T02:15:51.604Z,6.58
2019-03-01T02:30:51.665Z,6.66
2019-03-01T02:45:51.453Z,6.73
2019-03-01T03:00:51.396Z,7.40
2019-03-01T03:15:53.516Z,8.44
2019-03-01T03:45:51.864Z,8.36
2019-03-01T04:00:53.585Z,7.75
2019-03-01T04:15:50.959Z,7.87
2019-03-01T04:30:53.897Z,8.10
2019-03-01T04:45:51.715Z,8.26
2019-03-01T05:00:52.757Z,8.17
2019-03-01T05:15:51.158Z,8.15
2019-03-01T05:30:50.956Z,8.67
2019-03-01T05:45:50.846Z,10.27
2019-03-01T06:00:51.452Z,13.39
2019-03-01T07:45:51.240Z,19.37
2019-03-01T08:00:53.613Z,18.60
2019-03-01T09:00:59.264Z,19.28
2019-03-01T09:15:51.940Z,20.65
2019-03-01T09:30:51.748Z,21.23
2019-03-01T09:45:52.120Z,21.60
2019-03-01T10:00:59.265Z,21.89
2019-03-01T10:15:50.889Z,21.94
2019-03-01T10:30:51.278Z,21.77
2019-03-01T10:45:51.679Z,21.81
2019-03-01T11:00:51.672Z,21.73
2019-03-01T11:15:56.689Z,21.72
2019-03-01T11:30:51.162Z,21.50
2019-03-01T11:45:51.530Z,21.24
2019-03-01T12:00:52.366Z,20.68
2019-03-01T12:15:53.378Z,20.18
2019-03-01T12:30:51.157Z,19.75
2019-03-01T12:45:51.068Z,18.92
2019-03-01T13:00:50.985Z,18.44
2019-03-01T14:30:51.279Z,16.42
2019-03-01T14:45:51.101Z,16.08
2019-03-01T15:00:55.459Z,15.79
2019-03-01T15:15:51.057Z,15.50
2019-03-01T15:30:51.507Z,15.10
2019-03-01T15:45:51.444Z,14.72
2019-03-01T16:00:51.445Z,14.30
2019-03-01T16:15:51.299Z,14.57
2019-03-01T16:30:53.235Z,14.08
2019-03-01T16:45:50.221Z,13.40
2019-03-01T17:00:53.628Z,12.92
2019-03-01T17:15:53.546Z,12.58
2019-03-01T17:30:51.771Z,12.29
2019-03-01T17:45:50.989Z,12.03
2019-03-01T18:00:51.193Z,11.71
2019-03-01T18:15:52.906Z,11.41
2019-03-01T18:30:56.133Z,11.17
2019-03-01T19:00:53.215Z,10.91
2019-03-01T19:15:54.367Z,10.78
2019-03-01T19:30:53.523Z,10.70
2019-03-01T19:45:51.316Z,10.76
2019-03-01T20:00:53.141Z,10.71
2019-03-01T20:15:53.305Z,10.62
2019-03-01T20:30:51.730Z,10.59
2019-03-01T20:45:51.612Z,10.59
2019-03-01T21:15:53.232Z,10.60
2019-03-01T21:30:51.253Z,10.57
2019-03-01T21:45:59.029Z,10.50
2019-03-01T22:00:50.793Z,10.31
2019-03-01T22:15:51.761Z,10.15
2019-03-01T22:30:51.775Z,10.08
2019-03-01T22:45:51.459Z,10.06
2019-03-01T23:15:51.724Z,9.91
2019-03-01T23:30:52.444Z,9.80
2019-03-01T23:45:53.667Z,9.69
